sensor_id;sensor_type;location;lat;lon;timestamp;pressure;altitude;pressure_sealevel;temperature;humidity
20455;BME280;10386;54.314;10.022;2023-03-26T00:01:15;98789.81;;;7.76;100.00
20455;BME280;10386;54.314;10.022;2023-03-26T00:03:43;98791.38;;;7.69;100.00
20455;BME280;10386;54.314;10.022;2023-03-26T00:06:16;98793.50;;;7.75;100.00
20455;BME280;10386;54.314;10.022;2023-03-26T00:08:44;98795.34;;;7.75;100.00
20455;BME280;10386;54.314;10.022;2023-03-26T00:11:13;98798.75;;;7.77;100.00
20455;BME280;10386;54.314;10.022;2023-03-26T00:13:42;98797.06;;;7.76;100.00
20455;BME280;10386;54.314;10.022;2023-03-26T00:16:10;98797.50;;;7.71;100.00
20455;BME280;10386;54.314;10.022;2023-03-26T00:18:37;98800.19;;;7.71;100.00
20455;BME280;10386;54.314;10.022;2023-03-26T00:21:21;98812.97;;;7.69;100.00
20455;BME280;10386;54.314;10.022;2023-03-26T00:24:04;98820.66;;;7.74;100.00
20455;BME280;10386;54.314;10.022;2023-03-26T00:26:33;98814.41;;;7.73;100.00
20455;BME280;10386;54.314;10.022;2023-03-26T00:29:00;98813.53;;;7.73;100.00
20455;BME280;10386;54.314;10.022;2023-03-26T00:31:29;98825.50;;;7.70;100.00
20455;BME280;10386;54.314;10.022;2023-03-26T00:33:56;98819.38;;;7.68;100.00
20455;BME280;10386;54.314;10.022;2023-03-26T00:36:24;98828.19;;;7.70;100.00
20455;BME280;10386;54.314;10.022;2023-03-26T00:38:52;98835.00;;;7.65;100.00
20455;BME280;10386;54.314;10.022;2023-03-26T00:41:21;98831.44;;;7.74;100.00
20455;BME280;10386;54.314;10.022;2023-03-26T00:43:53;98837.44;;;7.77;100.00
20455;BME280;10386;54.314;10.022;2023-03-26T00:46:24;98835.84;;;7.65;100.00
20455;BME280;10386;54.314;10.022;2023-03-26T00:48:51;98839.41;;;7.66;100.00
20455;BME280;10386;54.314;10.022;2023-03-26T00:51:19;98833.88;;;7.67;100.00
20455;BME280;10386;54.314;10.022;2023-03-26T00:53:48;98842.81;;;7.68;100.00
20455;BME280;10386;54.314;10.022;2023-03-26T00:56:15;98848.63;;;7.63;100.00
20455;BME280;10386;54.314;10.022;2023-03-26T00:58:43;98838.56;;;7.65;100.00
20455;BME280;10386;54.314;10.022;2023-03-26T01:01:17;98849.88;;;7.59;100.00
20455;BME280;10386;54.314;10.022;2023-03-26T01:03:45;98851.59;;;7.60;100.00
20455;BME280;10386;54.314;10.022;2023-03-26T01:06:31;98854.44;;;7.59;100.00
20455;BME280;10386;54.314;10.022;2023-03-26T01:09:03;98855.56;;;7.56;100.00
20455;BME280;10386;54.314;10.022;2023-03-26T01:11:33;98865.38;;;7.57;100.00
20455;BME280;10386;54.314;10.022;2023-03-26T01:14:09;98865.66;;;7.54;100.00
20455;BME280;10386;54.314;10.022;2023-03-26T01:17:03;98868.78;;;7.59;100.00
20455;BME280;10386;54.314;10.022;2023-03-26T01:19:52;98876.88;;;7.50;100.00
20455;BME280;10386;54.314;10.022;2023-03-26T01:22:22;98888.50;;;7.50;100.00
20455;BME280;10386;54.314;10.022;2023-03-26T01:24:49;98884.09;;;7.49;100.00
20455;BME280;10386;54.314;10.022;2023-03-26T01:27:35;98881.13;;;7.52;100.00
20455;BME280;10386;54.314;10.022;2023-03-26T01:36:21;98898.47;;;7.50;100.00
20455;BME280;10386;54.314;10.022;2023-03-26T01:41:40;98902.16;;;7.49;100.00
20455;BME280;10386;54.314;10.022;2023-03-26T01:47:04;98905.25;;;7.44;100.00
20455;BME280;10386;54.314;10.022;2023-03-26T01:49:32;98908.69;;;7.46;100.00
20455;BME280;10386;54.314;10.022;2023-03-26T01:51:59;98904.97;;;7.47;100.00
20455;BME280;10386;54.314;10.022;2023-03-26T01:54:27;98911.19;;;7.38;100.00
20455;BME280;10386;54.314;10.022;2023-03-26T01:57:27;98909.66;;;7.36;100.00
20455;BME280;10386;54.314;10.022;2023-03-26T02:06:33;98917.03;;;7.34;100.00
20455;BME280;10386;54.314;10.022;2023-03-26T02:08:51;98919.66;;;7.24;100.00
20455;BME280;10386;54.314;10.022;2023-03-26T02:11:19;98913.00;;;7.28;100.00
20455;BME280;10386;54.314;10.022;2023-03-26T02:13:50;98922.81;;;7.29;100.00
20455;BME280;10386;54.314;10.022;2023-03-26T02:16:18;98929.34;;;7.27;100.00
20455;BME280;10386;54.314;10.022;2023-03-26T02:18:47;98924.25;;;7.33;100.00
20455;BME280;10386;54.314;10.022;2023-03-26T02:21:18;98927.94;;;7.32;100.00
20455;BME280;10386;54.314;10.022;2023-03-26T02:23:49;98927.50;;;7.27;100.00
20455;BME280;10386;54.314;10.022;2023-03-26T02:26:23;98926.16;;;7.22;100.00
20455;BME280;10386;54.314;10.022;2023-03-26T02:28:50;98933.53;;;7.20;100.00
20455;BME280;10386;54.314;10.022;2023-03-26T02:31:17;98933.31;;;7.23;100.00
20455;BME280;10386;54.314;10.022;2023-03-26T02:33:47;98933.44;;;7.21;100.00
20455;BME280;10386;54.314;10.022;2023-03-26T02:36:14;98936.78;;;7.14;100.00
20455;BME280;10386;54.314;10.022;2023-03-26T02:38:45;98949.69;;;7.10;100.00
20455;BME280;10386;54.314;10.022;2023-03-26T02:41:12;98962.00;;;7.03;100.00
20455;BME280;10386;54.314;10.022;2023-03-26T02:43:39;98960.41;;;7.01;100.00
20455;BME280;10386;54.314;10.022;2023-03-26T02:46:05;98966.34;;;6.95;100.00
20455;BME280;10386;54.314;10.022;2023-03-26T02:48:32;98973.44;;;6.96;100.00
20455;BME280;10386;54.314;10.022;2023-03-26T02:51:00;98968.13;;;6.85;100.00
20455;BME280;10386;54.314;10.022;2023-03-26T02:53:29;98974.69;;;6.92;100.00
20455;BME280;10386;54.314;10.022;2023-03-26T02:55:56;98983.47;;;6.84;100.00
20455;BME280;10386;54.314;10.022;2023-03-26T02:58:24;98987.63;;;6.88;100.00
20455;BME280;10386;54.314;10.022;2023-03-26T03:00:52;98987.16;;;6.83;100.00
20455;BME280;10386;54.314;10.022;2023-03-26T03:03:26;99002.81;;;6.89;100.00
20455;BME280;10386;54.314;10.022;2023-03-26T03:05:53;98994.56;;;6.91;100.00
20455;BME280;10386;54.314;10.022;2023-03-26T03:08:23;99003.53;;;6.91;100.00
20455;BME280;10386;54.314;10.022;2023-03-26T03:10:59;99003.53;;;6.91;100.00
20455;BME280;10386;54.314;10.022;2023-03-26T03:13:27;99013.50;;;6.80;100.00
20455;BME280;10386;54.314;10.022;2023-03-26T03:15:54;99027.38;;;6.76;100.00
20455;BME280;10386;54.314;10.022;2023-03-26T03:18:21;99027.78;;;6.71;100.00
20455;BME280;10386;54.314;10.022;2023-03-26T03:20:48;99045.56;;;6.63;100.00
20455;BME280;10386;54.314;10.022;2023-03-26T03:23:15;99046.84;;;6.48;100.00
20455;BME280;10386;54.314;10.022;2023-03-26T03:25:42;99054.69;;;6.40;100.00
20455;BME280;10386;54.314;10.022;2023-03-26T03:28:09;99062.31;;;6.35;100.00
20455;BME280;10386;54.314;10.022;2023-03-26T03:30:37;99065.75;;;6.26;100.00
20455;BME280;10386;54.314;10.022;2023-03-26T03:33:04;99069.69;;;6.22;100.00
20455;BME280;10386;54.314;10.022;2023-03-26T03:35:32;99088.91;;;6.17;100.00
20455;BME280;10386;54.314;10.022;2023-03-26T03:37:59;99097.13;;;6.16;100.00
20455;BME280;10386;54.314;10.022;2023-03-26T03:40:26;99093.19;;;6.20;100.00
20455;BME280;10386;54.314;10.022;2023-03-26T03:42:53;99102.59;;;6.25;100.00
20455;BME280;10386;54.314;10.022;2023-03-26T03:45:19;99107.16;;;6.25;100.00
20455;BME280;10386;54.314;10.022;2023-03-26T03:47:46;99112.56;;;6.14;100.00
20455;BME280;10386;54.314;10.022;2023-03-26T03:50:13;99119.28;;;6.08;100.00
20455;BME280;10386;54.314;10.022;2023-03-26T03:52:40;99114.25;;;5.93;100.00
20455;BME280;10386;54.314;10.022;2023-03-26T03:55:07;99121.25;;;6.06;100.00
20455;BME280;10386;54.314;10.022;2023-03-26T03:57:36;99131.13;;;5.84;100.00
20455;BME280;10386;54.314;10.022;2023-03-26T04:00:02;99130.53;;;5.91;100.00
20455;BME280;10386;54.314;10.022;2023-03-26T04:02:34;99143.03;;;5.81;100.00
20455;BME280;10386;54.314;10.022;2023-03-26T04:05:02;99159.00;;;5.72;100.00
20455;BME280;10386;54.314;10.022;2023-03-26T04:07:29;99162.09;;;5.78;100.00
20455;BME280;10386;54.314;10.022;2023-03-26T04:09:57;99173.72;;;5.79;100.00
20455;BME280;10386;54.314;10.022;2023-03-26T04:12:26;99179.22;;;5.77;100.00
20455;BME280;10386;54.314;10.022;2023-03-26T04:14:54;99187.03;;;5.69;100.00
20455;BME280;10386;54.314;10.022;2023-03-26T04:17:21;99186.88;;;5.71;100.00
20455;BME280;10386;54.314;10.022;2023-03-26T04:19:49;99183.69;;;5.66;100.00
20455;BME280;10386;54.314;10.022;2023-03-26T04:22:18;99188.38;;;5.75;100.00
20455;BME280;10386;54.314;10.022;2023-03-26T04:24:45;99204.66;;;5.73;100.00
20455;BME280;10386;54.314;10.022;2023-03-26T04:27:17;99191.44;;;5.70;100.00
20455;BME280;10386;54.314;10.022;2023-03-26T04:29:47;99208.72;;;5.79;100.00
20455;BME280;10386;54.314;10.022;2023-03-26T04:32:23;99217.09;;;5.63;100.00
20455;BME280;10386;54.314;10.022;2023-03-26T04:34:52;99226.03;;;5.64;100.00
20455;BME280;10386;54.314;10.022;2023-03-26T04:37:25;99236.31;;;5.70;100.00
20455;BME280;10386;54.314;10.022;2023-03-26T04:39:53;99259.03;;;5.55;100.00
20455;BME280;10386;54.314;10.022;2023-03-26T04:42:20;99273.78;;;5.49;100.00
20455;BME280;10386;54.314;10.022;2023-03-26T04:44:47;99285.16;;;5.42;100.00
20455;BME280;10386;54.314;10.022;2023-03-26T04:47:17;99300.66;;;5.38;100.00
20455;BME280;10386;54.314;10.022;2023-03-26T04:49:45;99305.41;;;5.35;100.00
20455;BME280;10386;54.314;10.022;2023-03-26T04:52:13;99318.97;;;5.34;100.00
20455;BME280;10386;54.314;10.022;2023-03-26T04:54:42;99326.34;;;5.42;100.00
20455;BME280;10386;54.314;10.022;2023-03-26T04:57:37;99354.81;;;5.34;100.00
20455;BME280;10386;54.314;10.022;2023-03-26T05:00:06;99370.97;;;5.34;100.00
20455;BME280;10386;54.314;10.022;2023-03-26T05:02:44;99381.13;;;5.41;100.00
20455;BME280;10386;54.314;10.022;2023-03-26T05:05:11;99409.81;;;5.30;100.00
20455;BME280;10386;54.314;10.022;2023-03-26T05:07:38;99421.72;;;5.38;100.00
20455;BME280;10386;54.314;10.022;2023-03-26T05:10:05;99447.78;;;5.38;100.00
20455;BME280;10386;54.314;10.022;2023-03-26T05:12:32;99465.13;;;5.34;100.00
20455;BME280;10386;54.314;10.022;2023-03-26T05:14:58;99482.75;;;5.38;100.00
20455;BME280;10386;54.314;10.022;2023-03-26T05:17:25;99505.03;;;5.40;100.00
20455;BME280;10386;54.314;10.022;2023-03-26T05:19:56;99534.09;;;5.35;100.00
20455;BME280;10386;54.314;10.022;2023-03-26T05:22:23;99546.69;;;5.35;100.00
20455;BME280;10386;54.314;10.022;2023-03-26T05:24:49;99567.91;;;5.39;100.00
20455;BME280;10386;54.314;10.022;2023-03-26T05:27:17;99628.25;;;5.23;100.00
20455;BME280;10386;54.314;10.022;2023-03-26T05:29:45;99640.00;;;5.34;100.00
20455;BME280;10386;54.314;10.022;2023-03-26T05:32:12;99663.34;;;5.34;100.00
20455;BME280;10386;54.314;10.022;2023-03-26T05:34:39;99693.47;;;5.26;100.00
20455;BME280;10386;54.314;10.022;2023-03-26T05:37:08;99715.97;;;5.25;100.00
20455;BME280;10386;54.314;10.022;2023-03-26T05:39:35;99750.94;;;5.25;100.00
20455;BME280;10386;54.314;10.022;2023-03-26T05:42:01;99770.19;;;5.19;100.00
20455;BME280;10386;54.314;10.022;2023-03-26T05:44:28;99786.66;;;5.27;100.00
20455;BME280;10386;54.314;10.022;2023-03-26T05:46:55;99799.84;;;5.18;100.00
20455;BME280;10386;54.314;10.022;2023-03-26T05:49:22;99823.66;;;5.24;100.00
20455;BME280;10386;54.314;10.022;2023-03-26T05:51:48;99839.41;;;5.30;100.00
20455;BME280;10386;54.314;10.022;2023-03-26T05:54:16;99916.50;;;5.17;100.00
20455;BME280;10386;54.314;10.022;2023-03-26T05:56:42;99926.97;;;5.21;100.00
20455;BME280;10386;54.314;10.022;2023-03-26T05:59:09;99935.13;;;5.20;100.00
20455;BME280;10386;54.314;10.022;2023-03-26T06:01:36;99939.06;;;5.28;100.00
20455;BME280;10386;54.314;10.022;2023-03-26T06:04:03;99965.41;;;5.23;100.00
20455;BME280;10386;54.314;10.022;2023-03-26T06:06:31;99980.06;;;5.32;100.00
20455;BME280;10386;54.314;10.022;2023-03-26T06:08:58;99999.78;;;5.32;100.00
20455;BME280;10386;54.314;10.022;2023-03-26T06:11:28;100011.91;;;5.39;100.00
20455;BME280;10386;54.314;10.022;2023-03-26T06:13:56;100022.66;;;5.25;100.00
20455;BME280;10386;54.314;10.022;2023-03-26T06:16:23;100029.09;;;5.37;100.00
20455;BME280;10386;54.314;10.022;2023-03-26T06:18:54;100071.50;;;5.33;100.00
20455;BME280;10386;54.314;10.022;2023-03-26T06:21:24;100077.16;;;5.42;100.00
20455;BME280;10386;54.314;10.022;2023-03-26T06:23:51;100094.19;;;5.43;100.00
20455;BME280;10386;54.314;10.022;2023-03-26T06:26:18;100105.59;;;5.33;100.00
20455;BME280;10386;54.314;10.022;2023-03-26T06:28:46;100108.84;;;5.38;100.00
20455;BME280;10386;54.314;10.022;2023-03-26T06:31:12;100115.63;;;5.58;100.00
20455;BME280;10386;54.314;10.022;2023-03-26T06:33:39;100116.97;;;5.65;100.00
20455;BME280;10386;54.314;10.022;2023-03-26T06:36:06;100123.34;;;5.78;100.00
20455;BME280;10386;54.314;10.022;2023-03-26T06:38:33;100153.97;;;5.62;100.00
20455;BME280;10386;54.314;10.022;2023-03-26T06:41:04;100170.13;;;5.76;100.00
20455;BME280;10386;54.314;10.022;2023-03-26T06:43:31;100178.34;;;6.02;100.00
20455;BME280;10386;54.314;10.022;2023-03-26T06:46:00;100195.88;;;5.95;100.00
20455;BME280;10386;54.314;10.022;2023-03-26T06:48:27;100201.06;;;5.84;100.00
20455;BME280;10386;54.314;10.022;2023-03-26T06:50:53;100215.00;;;5.91;100.00
20455;BME280;10386;54.314;10.022;2023-03-26T06:53:21;100232.03;;;5.91;100.00
20455;BME280;10386;54.314;10.022;2023-03-26T06:55:47;100230.19;;;5.92;100.00
20455;BME280;10386;54.314;10.022;2023-03-26T06:58:14;100239.84;;;5.96;100.00
20455;BME280;10386;54.314;10.022;2023-03-26T07:00:42;100243.84;;;5.89;100.00
20455;BME280;10386;54.314;10.022;2023-03-26T07:03:09;100252.66;;;5.77;100.00
20455;BME280;10386;54.314;10.022;2023-03-26T07:05:39;100266.19;;;5.91;100.00
20455;BME280;10386;54.314;10.022;2023-03-26T07:08:06;100276.25;;;6.17;100.00
20455;BME280;10386;54.314;10.022;2023-03-26T07:10:33;100282.84;;;6.11;100.00
20455;BME280;10386;54.314;10.022;2023-03-26T07:12:59;100283.84;;;6.24;100.00
20455;BME280;10386;54.314;10.022;2023-03-26T07:15:27;100288.94;;;6.15;100.00
20455;BME280;10386;54.314;10.022;2023-03-26T07:17:54;100288.56;;;6.21;100.00
20455;BME280;10386;54.314;10.022;2023-03-26T07:20:22;100287.88;;;6.17;100.00
20455;BME280;10386;54.314;10.022;2023-03-26T07:22:49;100297.69;;;6.32;100.00
20455;BME280;10386;54.314;10.022;2023-03-26T07:25:16;100298.38;;;6.36;100.00
20455;BME280;10386;54.314;10.022;2023-03-26T07:33:14;100308.97;;;6.11;100.00
20455;BME280;10386;54.314;10.022;2023-03-26T07:41:45;100307.81;;;6.29;100.00
20455;BME280;10386;54.314;10.022;2023-03-26T07:46:48;100318.91;;;6.66;100.00
20455;BME280;10386;54.314;10.022;2023-03-26T07:49:19;100317.22;;;6.78;100.00
20455;BME280;10386;54.314;10.022;2023-03-26T07:51:47;100317.72;;;6.70;100.00
20455;BME280;10386;54.314;10.022;2023-03-26T07:54:14;100317.44;;;6.75;100.00
20455;BME280;10386;54.314;10.022;2023-03-26T07:59:49;100331.78;;;6.75;100.00
20455;BME280;10386;54.314;10.022;2023-03-26T08:06:10;100329.50;;;6.55;100.00
20455;BME280;10386;54.314;10.022;2023-03-26T08:08:13;100335.72;;;6.70;100.00
20455;BME280;10386;54.314;10.022;2023-03-26T08:11:01;100325.88;;;7.10;100.00
20455;BME280;10386;54.314;10.022;2023-03-26T08:16:36;100321.00;;;7.29;100.00
20455;BME280;10386;54.314;10.022;2023-03-26T08:22:10;100313.34;;;7.09;100.00
20455;BME280;10386;54.314;10.022;2023-03-26T08:27:38;100337.56;;;6.83;100.00
20455;BME280;10386;54.314;10.022;2023-03-26T08:30:23;100320.78;;;6.92;100.00
20455;BME280;10386;54.314;10.022;2023-03-26T08:32:55;100329.84;;;7.31;100.00
20455;BME280;10386;54.314;10.022;2023-03-26T08:35:23;100320.59;;;7.35;100.00
20455;BME280;10386;54.314;10.022;2023-03-26T08:37:50;100322.16;;;7.25;100.00
20455;BME280;10386;54.314;10.022;2023-03-26T09:03:09;100353.53;;;7.40;100.00
20455;BME280;10386;54.314;10.022;2023-03-26T09:05:59;100334.41;;;7.31;100.00
20455;BME280;10386;54.314;10.022;2023-03-26T09:25:52;100325.31;;;8.23;100.00
20455;BME280;10386;54.314;10.022;2023-03-26T09:34:01;100297.28;;;8.37;100.00
20455;BME280;10386;54.314;10.022;2023-03-26T09:36:54;100312.44;;;8.52;100.00
20455;BME280;10386;54.314;10.022;2023-03-26T09:39:35;100275.81;;;8.09;100.00
20455;BME280;10386;54.314;10.022;2023-03-26T09:42:16;100302.56;;;8.63;100.00
20455;BME280;10386;54.314;10.022;2023-03-26T09:45:15;100290.16;;;8.61;100.00
20455;BME280;10386;54.314;10.022;2023-03-26T09:49:03;100302.59;;;8.51;100.00
20455;BME280;10386;54.314;10.022;2023-03-26T10:02:27;100296.78;;;8.93;100.00
20455;BME280;10386;54.314;10.022;2023-03-26T10:17:03;100308.63;;;8.42;100.00
20455;BME280;10386;54.314;10.022;2023-03-26T10:19:47;100320.31;;;8.18;100.00
20455;BME280;10386;54.314;10.022;2023-03-26T10:34:07;100300.22;;;9.31;100.00
20455;BME280;10386;54.314;10.022;2023-03-26T10:40:13;100305.63;;;9.66;100.00
20455;BME280;10386;54.314;10.022;2023-03-26T10:48:22;100302.22;;;9.52;100.00
20455;BME280;10386;54.314;10.022;2023-03-26T10:53:50;100273.63;;;9.48;100.00
20455;BME280;10386;54.314;10.022;2023-03-26T10:56:27;100294.97;;;8.93;100.00
20455;BME280;10386;54.314;10.022;2023-03-26T10:59:00;100318.03;;;8.74;100.00
20455;BME280;10386;54.314;10.022;2023-03-26T11:01:39;100336.13;;;9.22;100.00
20455;BME280;10386;54.314;10.022;2023-03-26T11:09:43;100307.44;;;9.66;100.00
20455;BME280;10386;54.314;10.022;2023-03-26T11:12:57;100310.22;;;9.77;100.00
20455;BME280;10386;54.314;10.022;2023-03-26T11:20:50;100323.34;;;10.17;100.00
20455;BME280;10386;54.314;10.022;2023-03-26T11:23:39;100317.97;;;10.39;100.00
20455;BME280;10386;54.314;10.022;2023-03-26T11:26:17;100298.66;;;10.77;100.00
20455;BME280;10386;54.314;10.022;2023-03-26T11:32:08;100323.28;;;10.52;100.00
20455;BME280;10386;54.314;10.022;2023-03-26T11:35:04;100319.63;;;10.64;100.00
20455;BME280;10386;54.314;10.022;2023-03-26T11:37:41;100313.03;;;9.99;100.00
20455;BME280;10386;54.314;10.022;2023-03-26T11:40:31;100326.75;;;10.08;100.00
20455;BME280;10386;54.314;10.022;2023-03-26T11:43:01;100329.22;;;9.54;100.00
20455;BME280;10386;54.314;10.022;2023-03-26T11:45:36;100343.94;;;9.26;100.00
20455;BME280;10386;54.314;10.022;2023-03-26T11:48:17;100366.56;;;9.61;100.00
20455;BME280;10386;54.314;10.022;2023-03-26T11:50:52;100343.38;;;9.57;100.00
20455;BME280;10386;54.314;10.022;2023-03-26T11:53:26;100353.47;;;9.78;100.00
20455;BME280;10386;54.314;10.022;2023-03-26T11:56:14;100341.31;;;10.07;100.00
20455;BME280;10386;54.314;10.022;2023-03-26T12:01:15;100352.66;;;9.30;100.00
20455;BME280;10386;54.314;10.022;2023-03-26T12:03:54;100355.22;;;9.08;100.00
20455;BME280;10386;54.314;10.022;2023-03-26T12:06:24;100365.22;;;8.95;100.00
20455;BME280;10386;54.314;10.022;2023-03-26T12:08:53;100376.53;;;9.25;100.00
20455;BME280;10386;54.314;10.022;2023-03-26T12:11:27;100373.72;;;9.26;100.00
20455;BME280;10386;54.314;10.022;2023-03-26T12:14:01;100380.19;;;9.36;100.00
20455;BME280;10386;54.314;10.022;2023-03-26T12:16:29;100361.25;;;9.59;100.00
20455;BME280;10386;54.314;10.022;2023-03-26T12:19:01;100318.69;;;9.49;100.00
20455;BME280;10386;54.314;10.022;2023-03-26T12:21:48;100320.44;;;9.73;100.00
20455;BME280;10386;54.314;10.022;2023-03-26T12:24:31;100327.44;;;9.76;100.00
20455;BME280;10386;54.314;10.022;2023-03-26T12:27:20;100333.81;;;10.11;100.00
20455;BME280;10386;54.314;10.022;2023-03-26T12:30:10;100323.59;;;9.91;100.00
20455;BME280;10386;54.314;10.022;2023-03-26T12:32:40;100369.84;;;10.91;100.00
20455;BME280;10386;54.314;10.022;2023-03-26T12:35:17;100332.28;;;10.30;100.00
20455;BME280;10386;54.314;10.022;2023-03-26T12:37:45;100336.28;;;10.70;100.00
20455;BME280;10386;54.314;10.022;2023-03-26T12:40:33;100346.03;;;10.73;100.00
20455;BME280;10386;54.314;10.022;2023-03-26T12:43:20;100333.44;;;11.26;100.00
20455;BME280;10386;54.314;10.022;2023-03-26T12:49:09;100334.69;;;10.68;100.00
20455;BME280;10386;54.314;10.022;2023-03-26T12:51:56;100344.44;;;10.70;100.00
20455;BME280;10386;54.314;10.022;2023-03-26T12:57:22;100347.38;;;10.78;100.00
20455;BME280;10386;54.314;10.022;2023-03-26T13:00:10;100319.63;;;9.84;100.00
20455;BME280;10386;54.314;10.022;2023-03-26T13:08:23;100365.09;;;10.04;100.00
20455;BME280;10386;54.314;10.022;2023-03-26T13:13:47;100346.38;;;9.65;100.00
20455;BME280;10386;54.314;10.022;2023-03-26T13:22:03;100362.28;;;9.46;100.00
20455;BME280;10386;54.314;10.022;2023-03-26T13:38:12;100323.88;;;9.52;100.00
20455;BME280;10386;54.314;10.022;2023-03-26T13:46:54;100316.38;;;10.02;100.00
20455;BME280;10386;54.314;10.022;2023-03-26T13:49:39;100316.19;;;10.16;100.00
20455;BME280;10386;54.314;10.022;2023-03-26T13:52:10;100310.38;;;10.10;100.00
20455;BME280;10386;54.314;10.022;2023-03-26T13:54:56;100301.97;;;9.55;100.00
20455;BME280;10386;54.314;10.022;2023-03-26T13:57:39;100323.31;;;10.06;100.00
20455;BME280;10386;54.314;10.022;2023-03-26T14:00:15;100329.06;;;10.25;100.00
20455;BME280;10386;54.314;10.022;2023-03-26T14:03:01;100307.47;;;10.35;100.00
20455;BME280;10386;54.314;10.022;2023-03-26T14:05:36;100303.19;;;10.87;100.00
20455;BME280;10386;54.314;10.022;2023-03-26T14:08:16;100284.94;;;10.67;100.00
20455;BME280;10386;54.314;10.022;2023-03-26T14:10:51;100265.84;;;10.69;100.00
20455;BME280;10386;54.314;10.022;2023-03-26T14:13:32;100286.91;;;10.43;100.00
20455;BME280;10386;54.314;10.022;2023-03-26T14:16:19;100300.38;;;10.89;100.00
20455;BME280;10386;54.314;10.022;2023-03-26T14:24:41;100290.13;;;10.70;100.00
20455;BME280;10386;54.314;10.022;2023-03-26T14:33:17;100320.72;;;10.83;100.00
20455;BME280;10386;54.314;10.022;2023-03-26T14:36:03;100321.53;;;10.29;100.00
20455;BME280;10386;54.314;10.022;2023-03-26T14:41:45;100323.78;;;10.00;100.00
20455;BME280;10386;54.314;10.022;2023-03-26T15:01:28;100342.03;;;10.09;100.00
20455;BME280;10386;54.314;10.022;2023-03-26T15:10:10;100321.81;;;9.79;100.00
20455;BME280;10386;54.314;10.022;2023-03-26T15:18:40;100380.53;;;9.91;100.00
20455;BME280;10386;54.314;10.022;2023-03-26T15:35:42;100491.34;;;9.59;100.00
20455;BME280;10386;54.314;10.022;2023-03-26T15:47:30;100508.41;;;9.37;100.00
20455;BME280;10386;54.314;10.022;2023-03-26T15:55:51;100512.38;;;9.19;100.00
20455;BME280;10386;54.314;10.022;2023-03-26T15:58:35;100522.47;;;9.29;100.00
20455;BME280;10386;54.314;10.022;2023-03-26T16:07:03;100534.06;;;9.06;100.00
20455;BME280;10386;54.314;10.022;2023-03-26T16:14:42;100512.91;;;9.61;100.00
20455;BME280;10386;54.314;10.022;2023-03-26T16:17:12;100523.19;;;9.56;100.00
20455;BME280;10386;54.314;10.022;2023-03-26T16:20:16;100509.47;;;9.47;100.00
20455;BME280;10386;54.314;10.022;2023-03-26T16:22:58;100518.44;;;9.35;100.00
20455;BME280;10386;54.314;10.022;2023-03-26T16:25:31;100520.72;;;9.28;100.00
20455;BME280;10386;54.314;10.022;2023-03-26T16:33:55;100534.13;;;8.80;100.00
20455;BME280;10386;54.314;10.022;2023-03-26T16:41:32;100568.25;;;8.56;100.00
20455;BME280;10386;54.314;10.022;2023-03-26T16:44:09;100581.47;;;8.60;100.00
20455;BME280;10386;54.314;10.022;2023-03-26T16:49:29;100587.13;;;8.70;100.00
20455;BME280;10386;54.314;10.022;2023-03-26T16:55:22;100588.97;;;8.43;100.00
20455;BME280;10386;54.314;10.022;2023-03-26T16:58:23;100600.19;;;8.37;100.00
20455;BME280;10386;54.314;10.022;2023-03-26T17:03:54;100601.56;;;8.30;100.00
20455;BME280;10386;54.314;10.022;2023-03-26T17:09:30;100616.38;;;8.11;100.00
20455;BME280;10386;54.314;10.022;2023-03-26T17:12:13;100624.25;;;8.00;100.00
20455;BME280;10386;54.314;10.022;2023-03-26T17:14:50;100623.72;;;8.23;100.00
20455;BME280;10386;54.314;10.022;2023-03-26T17:20:40;100636.53;;;8.05;100.00
20455;BME280;10386;54.314;10.022;2023-03-26T17:26:21;100647.25;;;7.79;100.00
20455;BME280;10386;54.314;10.022;2023-03-26T17:32:08;100657.84;;;7.40;100.00
20455;BME280;10386;54.314;10.022;2023-03-26T17:37:09;100672.91;;;7.58;100.00
20455;BME280;10386;54.314;10.022;2023-03-26T17:45:01;100684.19;;;7.21;100.00
20455;BME280;10386;54.314;10.022;2023-03-26T17:47:49;100689.09;;;7.14;100.00
20455;BME280;10386;54.314;10.022;2023-03-26T17:55:46;100689.50;;;7.22;100.00
20455;BME280;10386;54.314;10.022;2023-03-26T17:58:26;100696.59;;;7.09;100.00
20455;BME280;10386;54.314;10.022;2023-03-26T18:01:28;100699.56;;;7.05;100.00
20455;BME280;10386;54.314;10.022;2023-03-26T18:04:00;100708.16;;;7.11;100.00
20455;BME280;10386;54.314;10.022;2023-03-26T18:17:05;100721.63;;;6.82;100.00
20455;BME280;10386;54.314;10.022;2023-03-26T18:19:53;100731.28;;;6.71;100.00
20455;BME280;10386;54.314;10.022;2023-03-26T18:22:25;100738.75;;;6.66;100.00
20455;BME280;10386;54.314;10.022;2023-03-26T18:24:58;100725.09;;;6.69;100.00
20455;BME280;10386;54.314;10.022;2023-03-26T18:27:32;100710.03;;;6.65;100.00
20455;BME280;10386;54.314;10.022;2023-03-26T18:32:49;100681.25;;;6.50;100.00
20455;BME280;10386;54.314;10.022;2023-03-26T18:35:19;100685.97;;;6.31;100.00
20455;BME280;10386;54.314;10.022;2023-03-26T18:37:49;100682.91;;;6.21;100.00
20455;BME280;10386;54.314;10.022;2023-03-26T18:40:22;100686.22;;;6.11;100.00
20455;BME280;10386;54.314;10.022;2023-03-26T18:42:55;100683.41;;;5.97;100.00
20455;BME280;10386;54.314;10.022;2023-03-26T18:45:34;100687.34;;;5.90;100.00
20455;BME280;10386;54.314;10.022;2023-03-26T18:48:05;100690.56;;;5.81;100.00
20455;BME280;10386;54.314;10.022;2023-03-26T18:50:38;100698.63;;;5.81;100.00
20455;BME280;10386;54.314;10.022;2023-03-26T18:53:17;100686.53;;;5.72;100.00